sensor_id;sensor_type;location;lat;lon;timestamp;pressure;altitude;pressure_sealevel;temperature;humidity
64211;BME280;50528;48.514;14.394;2023-07-31T00:00:32;93899.51;;;16.81;62.47
64211;BME280;50528;48.514;14.394;2023-07-31T00:01:25;93899.11;;;16.79;62.17
64211;BME280;50528;48.514;14.394;2023-07-31T00:01:58;93900.26;;;16.76;61.93
64211;BME280;50528;48.514;14.394;2023-07-31T00:02:32;93899.40;;;16.77;61.90
64211;BME280;50528;48.514;14.394;2023-07-31T00:03:06;93898.17;;;16.72;61.96
64211;BME280;50528;48.514;14.394;2023-07-31T00:03:39;93900.48;;;16.69;62.00
64211;BME280;50528;48.514;14.394;2023-07-31T00:04:13;93899.48;;;16.69;62.06
64211;BME280;50528;48.514;14.394;2023-07-31T00:04:46;93897.83;;;16.75;62.05
64211;BME280;50528;48.514;14.394;2023-07-31T00:05:19;93901.10;;;16.72;62.27
64211;BME280;50528;48.514;14.394;2023-07-31T00:05:53;93900.34;;;16.68;62.31
64211;BME280;50528;48.514;14.394;2023-07-31T00:06:26;93901.22;;;16.67;62.40
64211;BME280;50528;48.514;14.394;2023-07-31T00:07:00;93900.65;;;16.65;62.31
64211;BME280;50528;48.514;14.394;2023-07-31T00:07:37;93900.81;;;16.66;62.43
64211;BME280;50528;48.514;14.394;2023-07-31T00:08:11;93902.89;;;16.68;62.23
64211;BME280;50528;48.514;14.394;2023-07-31T00:08:44;93903.59;;;16.67;62.40
64211;BME280;50528;48.514;14.394;2023-07-31T00:09:17;93902.14;;;16.64;62.38
64211;BME280;50528;48.514;14.394;2023-07-31T00:09:51;93905.38;;;16.63;62.46
64211;BME280;50528;48.514;14.394;2023-07-31T00:10:24;93906.19;;;16.63;62.43
64211;BME280;50528;48.514;14.394;2023-07-31T00:10:58;93902.44;;;16.60;62.49
64211;BME280;50528;48.514;14.394;2023-07-31T00:11:31;93902.31;;;16.62;62.51
64211;BME280;50528;48.514;14.394;2023-07-31T00:12:05;93904.75;;;16.63;62.56
64211;BME280;50528;48.514;14.394;2023-07-31T00:12:42;93900.98;;;16.63;62.59
64211;BME280;50528;48.514;14.394;2023-07-31T00:13:16;93905.50;;;16.62;62.45
64211;BME280;50528;48.514;14.394;2023-07-31T00:13:49;93905.02;;;16.63;62.35
64211;BME280;50528;48.514;14.394;2023-07-31T00:14:22;93904.06;;;16.64;62.45
64211;BME280;50528;48.514;14.394;2023-07-31T00:14:57;93906.45;;;16.63;62.67
64211;BME280;50528;48.514;14.394;2023-07-31T00:15:31;93907.52;;;16.63;62.84
64211;BME280;50528;48.514;14.394;2023-07-31T00:16:07;93907.34;;;16.65;62.72
64211;BME280;50528;48.514;14.394;2023-07-31T00:16:44;93909.08;;;16.61;62.82
64211;BME280;50528;48.514;14.394;2023-07-31T00:17:23;93908.71;;;16.58;62.88
64211;BME280;50528;48.514;14.394;2023-07-31T00:17:56;93910.53;;;16.59;62.78
64211;BME280;50528;48.514;14.394;2023-07-31T00:18:30;93911.55;;;16.60;62.57
64211;BME280;50528;48.514;14.394;2023-07-31T00:19:03;93907.91;;;16.60;62.50
64211;BME280;50528;48.514;14.394;2023-07-31T00:19:37;93911.48;;;16.59;62.32
64211;BME280;50528;48.514;14.394;2023-07-31T00:20:10;93907.65;;;16.56;62.49
64211;BME280;50528;48.514;14.394;2023-07-31T00:20:44;93910.95;;;16.56;62.56
64211;BME280;50528;48.514;14.394;2023-07-31T00:21:17;93910.11;;;16.55;62.66
64211;BME280;50528;48.514;14.394;2023-07-31T00:21:51;93911.54;;;16.56;62.77
64211;BME280;50528;48.514;14.394;2023-07-31T00:22:24;93912.33;;;16.56;62.63
64211;BME280;50528;48.514;14.394;2023-07-31T00:22:57;93912.80;;;16.56;62.60
64211;BME280;50528;48.514;14.394;2023-07-31T00:23:30;93913.09;;;16.55;62.32
64211;BME280;50528;48.514;14.394;2023-07-31T00:24:04;93914.42;;;16.54;62.42
64211;BME280;50528;48.514;14.394;2023-07-31T00:24:37;93914.33;;;16.53;62.41
64211;BME280;50528;48.514;14.394;2023-07-31T00:25:11;93916.52;;;16.53;62.50
64211;BME280;50528;48.514;14.394;2023-07-31T00:25:44;93912.65;;;16.52;62.54
64211;BME280;50528;48.514;14.394;2023-07-31T00:26:17;93912.01;;;16.52;62.44
64211;BME280;50528;48.514;14.394;2023-07-31T00:26:51;93914.66;;;16.51;62.56
64211;BME280;50528;48.514;14.394;2023-07-31T00:27:24;93914.66;;;16.51;62.57
64211;BME280;50528;48.514;14.394;2023-07-31T00:27:58;93912.86;;;16.51;62.77
64211;BME280;50528;48.514;14.394;2023-07-31T00:28:31;93915.88;;;16.51;62.77
64211;BME280;50528;48.514;14.394;2023-07-31T00:29:05;93911.98;;;16.50;62.95
64211;BME280;50528;48.514;14.394;2023-07-31T00:29:39;93916.90;;;16.52;63.02
64211;BME280;50528;48.514;14.394;2023-07-31T00:30:12;93917.64;;;16.52;63.04
64211;BME280;50528;48.514;14.394;2023-07-31T00:30:46;93919.44;;;16.51;63.05
64211;BME280;50528;48.514;14.394;2023-07-31T00:31:19;93921.52;;;16.51;63.04
64211;BME280;50528;48.514;14.394;2023-07-31T00:31:53;93918.48;;;16.52;62.88
64211;BME280;50528;48.514;14.394;2023-07-31T00:32:27;93916.84;;;16.51;62.84
64211;BME280;50528;48.514;14.394;2023-07-31T00:33:00;93915.30;;;16.51;62.89
64211;BME280;50528;48.514;14.394;2023-07-31T00:33:34;93914.45;;;16.51;62.85
64211;BME280;50528;48.514;14.394;2023-07-31T00:34:08;93914.83;;;16.50;62.91
64211;BME280;50528;48.514;14.394;2023-07-31T00:34:42;93917.55;;;16.50;63.01
64211;BME280;50528;48.514;14.394;2023-07-31T00:35:15;93916.32;;;16.50;62.93
64211;BME280;50528;48.514;14.394;2023-07-31T00:35:49;93918.78;;;16.49;63.03
64211;BME280;50528;48.514;14.394;2023-07-31T00:36:22;93919.94;;;16.50;62.92
64211;BME280;50528;48.514;14.394;2023-07-31T00:36:56;93920.02;;;16.52;62.59
64211;BME280;50528;48.514;14.394;2023-07-31T00:37:29;93920.44;;;16.48;62.76
64211;BME280;50528;48.514;14.394;2023-07-31T00:38:02;93919.13;;;16.46;62.74
64211;BME280;50528;48.514;14.394;2023-07-31T00:38:36;93920.50;;;16.48;62.95
64211;BME280;50528;48.514;14.394;2023-07-31T00:39:09;93919.92;;;16.46;62.78
64211;BME280;50528;48.514;14.394;2023-07-31T00:39:43;93919.18;;;16.45;62.87
64211;BME280;50528;48.514;14.394;2023-07-31T00:40:16;93920.70;;;16.43;62.96
64211;BME280;50528;48.514;14.394;2023-07-31T00:40:49;93924.05;;;16.43;63.21
64211;BME280;50528;48.514;14.394;2023-07-31T00:41:23;93926.50;;;16.40;63.25
64211;BME280;50528;48.514;14.394;2023-07-31T00:41:56;93924.39;;;16.39;63.38
64211;BME280;50528;48.514;14.394;2023-07-31T00:42:30;93923.86;;;16.38;63.55
64211;BME280;50528;48.514;14.394;2023-07-31T00:43:03;93926.48;;;16.37;63.49
64211;BME280;50528;48.514;14.394;2023-07-31T00:43:37;93927.03;;;16.36;63.66
64211;BME280;50528;48.514;14.394;2023-07-31T00:44:10;93930.83;;;16.37;63.74
64211;BME280;50528;48.514;14.394;2023-07-31T00:44:44;93926.59;;;16.37;63.66
64211;BME280;50528;48.514;14.394;2023-07-31T00:45:17;93924.64;;;16.35;63.54
64211;BME280;50528;48.514;14.394;2023-07-31T00:45:52;93927.41;;;16.34;63.20
64211;BME280;50528;48.514;14.394;2023-07-31T00:46:25;93929.48;;;16.32;63.07
64211;BME280;50528;48.514;14.394;2023-07-31T00:46:59;93928.00;;;16.32;63.03
64211;BME280;50528;48.514;14.394;2023-07-31T00:47:33;93930.73;;;16.31;63.22
64211;BME280;50528;48.514;14.394;2023-07-31T00:48:07;93927.46;;;16.29;63.06
64211;BME280;50528;48.514;14.394;2023-07-31T00:48:41;93930.48;;;16.29;63.34
64211;BME280;50528;48.514;14.394;2023-07-31T00:49:15;93930.02;;;16.28;63.33
64211;BME280;50528;48.514;14.394;2023-07-31T00:49:49;93928.58;;;16.27;63.33
64211;BME280;50528;48.514;14.394;2023-07-31T00:50:24;93927.25;;;16.27;63.40
64211;BME280;50528;48.514;14.394;2023-07-31T00:50:58;93929.27;;;16.27;63.39
64211;BME280;50528;48.514;14.394;2023-07-31T00:51:31;93914.83;;;16.18;63.44
64211;BME280;50528;48.514;14.394;2023-07-31T00:52:05;93927.77;;;16.25;63.45
64211;BME280;50528;48.514;14.394;2023-07-31T00:52:39;93927.94;;;16.24;63.43
64211;BME280;50528;48.514;14.394;2023-07-31T00:53:13;93927.89;;;16.24;63.37
64211;BME280;50528;48.514;14.394;2023-07-31T00:53:47;93929.18;;;16.25;63.47
64211;BME280;50528;48.514;14.394;2023-07-31T00:54:20;93927.19;;;16.24;63.24
64211;BME280;50528;48.514;14.394;2023-07-31T00:54:53;93930.55;;;16.21;63.35
64211;BME280;50528;48.514;14.394;2023-07-31T00:55:27;93930.42;;;16.20;63.44
64211;BME280;50528;48.514;14.394;2023-07-31T00:56:00;93933.52;;;16.17;63.39
64211;BME280;50528;48.514;14.394;2023-07-31T00:56:34;93931.38;;;16.17;63.14
64211;BME280;50528;48.514;14.394;2023-07-31T00:57:08;93930.02;;;16.15;63.06
64211;BME280;50528;48.514;14.394;2023-07-31T00:57:41;93934.91;;;16.13;63.17
64211;BME280;50528;48.514;14.394;2023-07-31T00:58:17;93934.73;;;16.12;63.58
64211;BME280;50528;48.514;14.394;2023-07-31T00:58:50;93937.36;;;16.07;63.67
64211;BME280;50528;48.514;14.394;2023-07-31T00:59:23;93932.56;;;16.04;63.71
64211;BME280;50528;48.514;14.394;2023-07-31T00:59:57;93935.73;;;16.06;63.82
64211;BME280;50528;48.514;14.394;2023-07-31T01:00:31;93933.35;;;16.03;63.79
64211;BME280;50528;48.514;14.394;2023-07-31T01:01:04;93937.48;;;16.03;63.85
64211;BME280;50528;48.514;14.394;2023-07-31T01:01:38;93936.61;;;16.02;63.93
64211;BME280;50528;48.514;14.394;2023-07-31T01:02:11;93935.71;;;16.01;63.92
64211;BME280;50528;48.514;14.394;2023-07-31T01:02:44;93939.23;;;15.98;64.02
64211;BME280;50528;48.514;14.394;2023-07-31T01:03:19;93935.27;;;15.97;64.12
64211;BME280;50528;48.514;14.394;2023-07-31T01:03:53;93939.28;;;15.98;64.29
64211;BME280;50528;48.514;14.394;2023-07-31T01:04:27;93937.16;;;15.98;64.30
64211;BME280;50528;48.514;14.394;2023-07-31T01:05:01;93938.12;;;15.96;64.27
64211;BME280;50528;48.514;14.394;2023-07-31T01:08:04;93937.92;;;15.82;64.62
64211;BME280;50528;48.514;14.394;2023-07-31T01:08:47;93939.02;;;15.76;64.63
64211;BME280;50528;48.514;14.394;2023-07-31T01:09:35;93937.39;;;15.74;64.56
64211;BME280;50528;48.514;14.394;2023-07-31T01:10:20;93937.38;;;15.72;64.52
64211;BME280;50528;48.514;14.394;2023-07-31T01:10:59;93939.12;;;15.71;64.56
64211;BME280;50528;48.514;14.394;2023-07-31T01:11:41;93937.33;;;15.70;64.65
64211;BME280;50528;48.514;14.394;2023-07-31T01:12:16;93938.38;;;15.70;64.60
64211;BME280;50528;48.514;14.394;2023-07-31T01:12:51;93938.66;;;15.74;64.49
64211;BME280;50528;48.514;14.394;2023-07-31T01:13:24;93936.86;;;15.73;64.43
64211;BME280;50528;48.514;14.394;2023-07-31T01:13:58;93938.80;;;15.73;64.57
64211;BME280;50528;48.514;14.394;2023-07-31T01:14:32;93938.65;;;15.70;64.58
64211;BME280;50528;48.514;14.394;2023-07-31T01:15:07;93936.64;;;15.68;64.67
64211;BME280;50528;48.514;14.394;2023-07-31T01:15:44;93938.39;;;15.67;64.68
64211;BME280;50528;48.514;14.394;2023-07-31T01:16:17;93934.52;;;15.68;64.75
64211;BME280;50528;48.514;14.394;2023-07-31T01:16:51;93934.14;;;15.68;64.64
64211;BME280;50528;48.514;14.394;2023-07-31T01:17:24;93938.44;;;15.69;64.64
64211;BME280;50528;48.514;14.394;2023-07-31T01:17:57;93936.00;;;15.69;64.62
64211;BME280;50528;48.514;14.394;2023-07-31T01:18:31;93937.21;;;15.69;64.77
64211;BME280;50528;48.514;14.394;2023-07-31T01:19:06;93936.10;;;15.70;64.74
64211;BME280;50528;48.514;14.394;2023-07-31T01:19:42;93937.06;;;15.71;64.85
64211;BME280;50528;48.514;14.394;2023-07-31T01:20:23;93937.11;;;15.70;64.96
64211;BME280;50528;48.514;14.394;2023-07-31T01:21:21;93934.25;;;15.70;64.92
64211;BME280;50528;48.514;14.394;2023-07-31T01:22:30;93932.44;;;15.69;64.93
64211;BME280;50528;48.514;14.394;2023-07-31T01:24:19;93929.55;;;15.66;64.89
64211;BME280;50528;48.514;14.394;2023-07-31T01:26:29;93930.48;;;15.63;64.94
64211;BME280;50528;48.514;14.394;2023-07-31T01:27:14;93927.40;;;15.62;64.92
64211;BME280;50528;48.514;14.394;2023-07-31T01:28:19;93928.30;;;15.63;64.97
64211;BME280;50528;48.514;14.394;2023-07-31T01:29:07;93928.86;;;15.59;64.95
64211;BME280;50528;48.514;14.394;2023-07-31T01:30:16;93918.73;;;15.52;65.07
64211;BME280;50528;48.514;14.394;2023-07-31T01:30:58;93926.52;;;15.61;65.09
64211;BME280;50528;48.514;14.394;2023-07-31T01:31:34;93926.63;;;15.61;65.15
64211;BME280;50528;48.514;14.394;2023-07-31T01:32:09;93925.91;;;15.62;65.17
64211;BME280;50528;48.514;14.394;2023-07-31T01:32:46;93924.59;;;15.61;65.20
64211;BME280;50528;48.514;14.394;2023-07-31T01:33:21;93925.56;;;15.61;65.17
64211;BME280;50528;48.514;14.394;2023-07-31T01:33:58;93925.55;;;15.61;65.14
64211;BME280;50528;48.514;14.394;2023-07-31T01:34:33;93926.21;;;15.61;65.13
64211;BME280;50528;48.514;14.394;2023-07-31T01:35:08;93922.48;;;15.61;65.26
64211;BME280;50528;48.514;14.394;2023-07-31T01:35:44;93916.03;;;15.59;65.17
64211;BME280;50528;48.514;14.394;2023-07-31T01:36:18;93923.92;;;15.61;65.06
64211;BME280;50528;48.514;14.394;2023-07-31T01:36:52;93919.81;;;15.58;65.20
64211;BME280;50528;48.514;14.394;2023-07-31T01:37:29;93921.66;;;15.58;65.27
64211;BME280;50528;48.514;14.394;2023-07-31T01:38:05;93920.08;;;15.58;65.33
64211;BME280;50528;48.514;14.394;2023-07-31T01:38:39;93919.96;;;15.59;65.31
64211;BME280;50528;48.514;14.394;2023-07-31T01:39:12;93917.64;;;15.58;65.26
64211;BME280;50528;48.514;14.394;2023-07-31T01:39:46;93917.80;;;15.57;65.32
64211;BME280;50528;48.514;14.394;2023-07-31T01:40:19;93919.17;;;15.57;65.37
64211;BME280;50528;48.514;14.394;2023-07-31T01:40:53;93915.95;;;15.56;65.40
64211;BME280;50528;48.514;14.394;2023-07-31T01:41:27;93913.41;;;15.56;65.28
64211;BME280;50528;48.514;14.394;2023-07-31T01:42:00;93914.73;;;15.57;65.46
64211;BME280;50528;48.514;14.394;2023-07-31T01:42:34;93919.12;;;15.57;65.47
64211;BME280;50528;48.514;14.394;2023-07-31T01:43:07;93911.33;;;15.58;65.45
64211;BME280;50528;48.514;14.394;2023-07-31T01:43:40;93913.30;;;15.58;65.37
64211;BME280;50528;48.514;14.394;2023-07-31T01:44:14;93911.60;;;15.57;65.52
64211;BME280;50528;48.514;14.394;2023-07-31T01:44:47;93909.42;;;15.57;65.65
64211;BME280;50528;48.514;14.394;2023-07-31T01:45:20;93907.38;;;15.55;65.41
64211;BME280;50528;48.514;14.394;2023-07-31T01:45:54;93908.98;;;15.54;65.47
64211;BME280;50528;48.514;14.394;2023-07-31T01:46:27;93905.06;;;15.53;65.57
64211;BME280;50528;48.514;14.394;2023-07-31T01:47:01;93905.59;;;15.53;65.63
64211;BME280;50528;48.514;14.394;2023-07-31T01:47:35;93900.77;;;15.52;65.57
64211;BME280;50528;48.514;14.394;2023-07-31T01:48:08;93906.42;;;15.51;65.58
64211;BME280;50528;48.514;14.394;2023-07-31T01:48:41;93903.98;;;15.50;65.63
64211;BME280;50528;48.514;14.394;2023-07-31T01:50:43;93898.27;;;15.44;65.60
64211;BME280;50528;48.514;14.394;2023-07-31T01:51:16;93901.09;;;15.39;65.51
64211;BME280;50528;48.514;14.394;2023-07-31T01:51:49;93898.96;;;15.35;65.53
64211;BME280;50528;48.514;14.394;2023-07-31T01:52:23;93897.78;;;15.36;65.58
64211;BME280;50528;48.514;14.394;2023-07-31T01:52:56;93900.91;;;15.36;65.65
64211;BME280;50528;48.514;14.394;2023-07-31T01:53:31;93896.09;;;15.35;65.71
64211;BME280;50528;48.514;14.394;2023-07-31T01:54:04;93897.67;;;15.35;65.84
64211;BME280;50528;48.514;14.394;2023-07-31T01:54:38;93897.09;;;15.35;65.78
64211;BME280;50528;48.514;14.394;2023-07-31T01:55:11;93897.36;;;15.34;65.87
64211;BME280;50528;48.514;14.394;2023-07-31T01:55:45;93896.25;;;15.33;65.87
64211;BME280;50528;48.514;14.394;2023-07-31T01:56:18;93897.10;;;15.33;66.02
64211;BME280;50528;48.514;14.394;2023-07-31T01:56:51;93896.67;;;15.33;65.91
64211;BME280;50528;48.514;14.394;2023-07-31T01:57:24;93897.89;;;15.32;65.82
64211;BME280;50528;48.514;14.394;2023-07-31T01:57:58;93899.13;;;15.31;65.92
64211;BME280;50528;48.514;14.394;2023-07-31T01:58:31;93893.64;;;15.29;65.85
64211;BME280;50528;48.514;14.394;2023-07-31T01:59:05;93897.77;;;15.28;66.07
64211;BME280;50528;48.514;14.394;2023-07-31T01:59:39;93899.09;;;15.27;66.03
64211;BME280;50528;48.514;14.394;2023-07-31T02:00:12;93899.64;;;15.25;66.00
64211;BME280;50528;48.514;14.394;2023-07-31T02:00:45;93897.75;;;15.23;66.00
64211;BME280;50528;48.514;14.394;2023-07-31T02:01:19;93893.24;;;15.25;66.09
64211;BME280;50528;48.514;14.394;2023-07-31T02:01:52;93896.38;;;15.24;66.14
64211;BME280;50528;48.514;14.394;2023-07-31T02:02:27;93894.63;;;15.23;66.14
64211;BME280;50528;48.514;14.394;2023-07-31T02:03:00;93895.68;;;15.22;66.21
64211;BME280;50528;48.514;14.394;2023-07-31T02:03:33;93896.65;;;15.20;66.10
64211;BME280;50528;48.514;14.394;2023-07-31T02:04:07;93895.98;;;15.18;66.19
64211;BME280;50528;48.514;14.394;2023-07-31T02:04:41;93898.48;;;15.17;66.26
64211;BME280;50528;48.514;14.394;2023-07-31T02:05:14;93900.42;;;15.17;66.25
64211;BME280;50528;48.514;14.394;2023-07-31T02:05:48;93899.85;;;15.16;66.28
64211;BME280;50528;48.514;14.394;2023-07-31T02:06:22;93902.81;;;15.15;66.31
64211;BME280;50528;48.514;14.394;2023-07-31T02:06:55;93901.66;;;15.14;66.36
64211;BME280;50528;48.514;14.394;2023-07-31T02:07:29;93897.86;;;15.13;66.40
64211;BME280;50528;48.514;14.394;2023-07-31T02:08:02;93899.83;;;15.11;66.40
64211;BME280;50528;48.514;14.394;2023-07-31T02:08:38;93898.66;;;15.11;66.33
64211;BME280;50528;48.514;14.394;2023-07-31T02:09:11;93897.49;;;15.10;66.32
64211;BME280;50528;48.514;14.394;2023-07-31T02:09:45;93899.48;;;15.07;66.40
64211;BME280;50528;48.514;14.394;2023-07-31T02:10:20;93895.46;;;15.06;66.43
64211;BME280;50528;48.514;14.394;2023-07-31T02:10:53;93896.89;;;15.05;66.43
64211;BME280;50528;48.514;14.394;2023-07-31T02:11:26;93899.70;;;15.04;66.61
64211;BME280;50528;48.514;14.394;2023-07-31T02:12:00;93899.53;;;15.03;66.67
64211;BME280;50528;48.514;14.394;2023-07-31T02:12:33;93897.84;;;15.03;66.70
64211;BME280;50528;48.514;14.394;2023-07-31T02:13:07;93897.90;;;15.02;66.87
64211;BME280;50528;48.514;14.394;2023-07-31T02:13:40;93897.51;;;15.01;66.73
64211;BME280;50528;48.514;14.394;2023-07-31T02:14:14;93895.66;;;14.97;66.77
64211;BME280;50528;48.514;14.394;2023-07-31T02:14:47;93900.05;;;14.99;66.83
64211;BME280;50528;48.514;14.394;2023-07-31T02:15:21;93898.72;;;15.00;66.94
64211;BME280;50528;48.514;14.394;2023-07-31T02:15:54;93898.77;;;15.01;66.96
64211;BME280;50528;48.514;14.394;2023-07-31T02:16:27;93895.81;;;15.00;67.01
64211;BME280;50528;48.514;14.394;2023-07-31T02:17:01;93896.97;;;15.00;67.07
64211;BME280;50528;48.514;14.394;2023-07-31T02:17:34;93897.02;;;15.00;67.00
64211;BME280;50528;48.514;14.394;2023-07-31T02:18:09;93895.33;;;14.98;67.08
64211;BME280;50528;48.514;14.394;2023-07-31T02:18:43;93896.92;;;14.98;66.97
64211;BME280;50528;48.514;14.394;2023-07-31T02:19:16;93893.16;;;14.96;67.04
64211;BME280;50528;48.514;14.394;2023-07-31T02:19:49;93895.71;;;14.97;67.10
64211;BME280;50528;48.514;14.394;2023-07-31T02:20:23;93890.27;;;14.96;67.05
64211;BME280;50528;48.514;14.394;2023-07-31T02:20:56;93895.23;;;14.96;67.09
64211;BME280;50528;48.514;14.394;2023-07-31T02:21:31;93894.09;;;14.94;67.23
64211;BME280;50528;48.514;14.394;2023-07-31T02:22:04;93892.45;;;14.94;67.17
64211;BME280;50528;48.514;14.394;2023-07-31T02:22:38;93892.14;;;14.93;67.21
64211;BME280;50528;48.514;14.394;2023-07-31T02:23:11;93892.92;;;14.93;67.25
64211;BME280;50528;48.514;14.394;2023-07-31T02:23:44;93892.50;;;14.91;67.18
64211;BME280;50528;48.514;14.394;2023-07-31T02:24:18;93895.20;;;14.92;67.17
64211;BME280;50528;48.514;14.394;2023-07-31T02:24:51;93897.78;;;14.91;67.25
64211;BME280;50528;48.514;14.394;2023-07-31T02:25:26;93897.61;;;14.90;66.93
64211;BME280;50528;48.514;14.394;2023-07-31T02:26:00;93898.73;;;14.86;67.05
64211;BME280;50528;48.514;14.394;2023-07-31T02:26:33;93896.60;;;14.85;67.15
64211;BME280;50528;48.514;14.394;2023-07-31T02:27:06;93897.89;;;14.84;67.27
64211;BME280;50528;48.514;14.394;2023-07-31T02:27:40;93896.05;;;14.82;67.24
64211;BME280;50528;48.514;14.394;2023-07-31T02:28:13;93898.69;;;14.83;67.35
64211;BME280;50528;48.514;14.394;2023-07-31T02:28:46;93898.21;;;14.82;67.36
64211;BME280;50528;48.514;14.394;2023-07-31T02:29:20;93902.77;;;14.80;67.35
64211;BME280;50528;48.514;14.394;2023-07-31T02:29:53;93903.21;;;14.77;67.28
64211;BME280;50528;48.514;14.394;2023-07-31T02:30:28;93901.94;;;14.75;67.43
64211;BME280;50528;48.514;14.394;2023-07-31T02:31:01;93904.52;;;14.73;67.42
64211;BME280;50528;48.514;14.394;2023-07-31T02:31:34;93900.33;;;14.69;67.52
64211;BME280;50528;48.514;14.394;2023-07-31T02:32:08;93902.97;;;14.69;67.51
64211;BME280;50528;48.514;14.394;2023-07-31T02:32:42;93903.92;;;14.69;67.81
64211;BME280;50528;48.514;14.394;2023-07-31T02:33:15;93902.11;;;14.69;67.84
64211;BME280;50528;48.514;14.394;2023-07-31T02:33:51;93902.81;;;14.68;68.02
64211;BME280;50528;48.514;14.394;2023-07-31T02:34:27;93901.55;;;14.66;68.16
64211;BME280;50528;48.514;14.394;2023-07-31T02:35:01;93899.85;;;14.69;68.05
64211;BME280;50528;48.514;14.394;2023-07-31T02:35:34;93890.45;;;14.62;68.02
64211;BME280;50528;48.514;14.394;2023-07-31T02:36:07;93897.74;;;14.64;68.01
64211;BME280;50528;48.514;14.394;2023-07-31T02:36:41;93896.34;;;14.60;68.12
64211;BME280;50528;48.514;14.394;2023-07-31T02:37:15;93896.23;;;14.60;68.44
64211;BME280;50528;48.514;14.394;2023-07-31T02:37:49;93896.29;;;14.56;68.48
64211;BME280;50528;48.514;14.394;2023-07-31T02:38:24;93898.83;;;14.56;68.55
64211;BME280;50528;48.514;14.394;2023-07-31T02:38:57;93897.80;;;14.53;68.57
64211;BME280;50528;48.514;14.394;2023-07-31T02:39:31;93893.82;;;14.51;68.71
64211;BME280;50528;48.514;14.394;2023-07-31T02:40:05;93893.02;;;14.51;68.70
64211;BME280;50528;48.514;14.394;2023-07-31T02:40:40;93894.77;;;14.51;68.80
64211;BME280;50528;48.514;14.394;2023-07-31T02:41:16;93891.60;;;14.50;68.83
64211;BME280;50528;48.514;14.394;2023-07-31T02:41:50;93891.99;;;14.49;68.84
64211;BME280;50528;48.514;14.394;2023-07-31T02:42:24;93893.58;;;14.46;68.71
64211;BME280;50528;48.514;14.394;2023-07-31T02:42:57;93891.13;;;14.45;68.89
64211;BME280;50528;48.514;14.394;2023-07-31T02:43:31;93889.62;;;14.42;68.90
64211;BME280;50528;48.514;14.394;2023-07-31T02:44:05;93888.36;;;14.41;68.97
64211;BME280;50528;48.514;14.394;2023-07-31T02:44:39;93890.89;;;14.40;69.11
64211;BME280;50528;48.514;14.394;2023-07-31T02:45:12;93887.77;;;14.40;69.02
64211;BME280;50528;48.514;14.394;2023-07-31T02:45:51;93888.30;;;14.38;69.06
64211;BME280;50528;48.514;14.394;2023-07-31T02:46:26;93887.24;;;14.37;69.15
64211;BME280;50528;48.514;14.394;2023-07-31T02:47:00;93889.84;;;14.37;69.16
64211;BME280;50528;48.514;14.394;2023-07-31T02:47:34;93886.77;;;14.35;69.19
64211;BME280;50528;48.514;14.394;2023-07-31T02:48:08;93889.00;;;14.37;69.36
64211;BME280;50528;48.514;14.394;2023-07-31T02:48:41;93889.92;;;14.36;69.36
64211;BME280;50528;48.514;14.394;2023-07-31T02:49:15;93884.39;;;14.37;69.31
64211;BME280;50528;48.514;14.394;2023-07-31T02:49:49;93884.13;;;14.36;69.29
64211;BME280;50528;48.514;14.394;2023-07-31T02:50:23;93886.61;;;14.37;69.38
64211;BME280;50528;48.514;14.394;2023-07-31T02:50:57;93887.28;;;14.36;69.38
64211;BME280;50528;48.514;14.394;2023-07-31T02:51:32;93887.45;;;14.36;69.42
64211;BME280;50528;48.514;14.394;2023-07-31T02:52:05;93887.06;;;14.34;69.45
64211;BME280;50528;48.514;14.394;2023-07-31T02:52:40;93888.13;;;14.33;69.46
64211;BME280;50528;48.514;14.394;2023-07-31T02:53:15;93886.38;;;14.33;69.50
64211;BME280;50528;48.514;14.394;2023-07-31T02:53:51;93889.07;;;14.33;69.62
64211;BME280;50528;48.514;14.394;2023-07-31T02:54:28;93892.88;;;14.32;69.53
64211;BME280;50528;48.514;14.394;2023-07-31T02:55:06;93891.16;;;14.29;69.62
64211;BME280;50528;48.514;14.394;2023-07-31T02:55:42;93890.77;;;14.27;69.56
64211;BME280;50528;48.514;14.394;2023-07-31T02:56:17;93893.43;;;14.26;69.91
64211;BME280;50528;48.514;14.394;2023-07-31T02:56:51;93892.42;;;14.27;69.91
64211;BME280;50528;48.514;14.394;2023-07-31T02:57:24;93895.06;;;14.27;69.95
64211;BME280;50528;48.514;14.394;2023-07-31T02:57:58;93893.64;;;14.28;69.92
64211;BME280;50528;48.514;14.394;2023-07-31T02:58:35;93894.64;;;14.29;69.92
64211;BME280;50528;48.514;14.394;2023-07-31T02:59:10;93893.73;;;14.27;69.85
64211;BME280;50528;48.514;14.394;2023-07-31T02:59:44;93890.58;;;14.28;69.84
64211;BME280;50528;48.514;14.394;2023-07-31T03:00:17;93892.85;;;14.29;69.91
64211;BME280;50528;48.514;14.394;2023-07-31T03:00:51;93888.30;;;14.29;69.88
64211;BME280;50528;48.514;14.394;2023-07-31T03:01:25;93890.95;;;14.29;70.02
64211;BME280;50528;48.514;14.394;2023-07-31T03:01:58;93890.35;;;14.27;69.93
64211;BME280;50528;48.514;14.394;2023-07-31T03:02:32;93895.39;;;14.28;69.84
64211;BME280;50528;48.514;14.394;2023-07-31T03:03:06;93892.95;;;14.28;69.89
64211;BME280;50528;48.514;14.394;2023-07-31T03:03:41;93892.48;;;14.29;69.97
64211;BME280;50528;48.514;14.394;2023-07-31T03:04:17;93894.16;;;14.30;69.98
64211;BME280;50528;48.514;14.394;2023-07-31T03:04:51;93893.32;;;14.28;69.91
64211;BME280;50528;48.514;14.394;2023-07-31T03:05:24;93892.73;;;14.26;70.07
64211;BME280;50528;48.514;14.394;2023-07-31T03:05:57;93893.02;;;14.23;69.99
64211;BME280;50528;48.514;14.394;2023-07-31T03:06:31;93894.33;;;14.26;70.10
64211;BME280;50528;48.514;14.394;2023-07-31T03:07:05;93893.85;;;14.26;70.07
64211;BME280;50528;48.514;14.394;2023-07-31T03:07:39;93894.28;;;14.25;69.97
64211;BME280;50528;48.514;14.394;2023-07-31T03:08:12;93894.06;;;14.25;69.99